Skip Navigation Links Skip Navigation Links

Current Weather

Igor I Sikorsky Memorial, Bridgeport, Conn.

For information only: do not use for flight planning or navigation.
Latest weather
Observation time Friday, May 29, 2020 5:52 PM EDT
Local time Friday, May 29, 2020 6:17 PM EDT
Flight conditions Visual Meteorological Conditions
Winds
Wind direction South (190°)
Wind speed 14 mph
Visibility 10 mi.
Sky condition
Ceiling unlimited
Sky clear
Temperature 73°F
Dewpoint 66°F
Altimeter 29.91 in.Hg
Derived measurements
Relative humidity 79%
Density altitude 1227 ft.
Sea-level pressure 29.91 in.Hg
Remarks
Automated weather observing station with precipitation discriminator.
METAR KBDR 292152Z 19012KT 10SM CLR 23/19 A2991 RMK AO2 SLP128 T02280189

Settings

Location code

InnerDrive.Weather 4.0.6770.0 Release CLR 4.0.30319.42000
Copyright ©2018 Inner Drive Technology. All rights reserved. Portions Copyright ©1986-2018 David Braverman.

Find weather

Site navigation


Skip Navigation Links

Place info

Page info

PayPal - The safer, easier way to pay online!

Return home.

Copyright ©2020 Inner Drive Technology. Purveyors of fine, hand-crafted computer software. Page printed 2020-05-29T22:17:34 UTC.